In Rescue
 
Open Full Screen Window  High Contrast Mode
Wind Gusting 00 knots
06
January 17, 2021 1:30 PM EST
Weather Information
Wind Direction
  010 °
Wind Speed
  06 kt (7 mph)
Wind Gust
  00 kt (0 mph)
Altimeter
29.63 in
Visibility
10 SM
Temperature
-01° C
30° F
Dewpoint
-06° C
21° F
Humidity
69%
1hr Rain Fall
00.00 in.
24hr Rain Fall
00.00 in.
Sky Condition
Overcast @ 8,500 ft
Broken @ 2,700 ft
Broken @ 1,400 ft
MVFR

METAR KMCD 171830Z AUTO 01006KT 10SM BKN014 BKN027 OVC085 M01/M06 A2963 RMK AO2 T10111059

FAA Disclaimer: The data displayed is for advisory purposes only and is not to be used for flight planning or operations.